createdAt,value
2019-04-11T00:00:12.882Z,75.80
2019-04-11T00:02:42.439Z,75.70
2019-04-11T00:05:12.694Z,75.30
2019-04-11T00:07:42.543Z,75.60
2019-04-11T00:10:12.417Z,76.30
2019-04-11T00:12:42.970Z,76.50
2019-04-11T00:15:12.756Z,75.90
2019-04-11T00:17:42.296Z,75.90
2019-04-11T00:20:12.018Z,76.30
2019-04-11T00:22:41.601Z,76.20
2019-04-11T00:25:11.521Z,77.90
2019-04-11T00:27:41.348Z,76.60
2019-04-11T00:30:12.254Z,76.00
2019-04-11T00:32:42.036Z,77.20
2019-04-11T00:35:11.861Z,76.30
2019-04-11T00:37:41.435Z,76.40
2019-04-11T00:40:11.142Z,75.90
2019-04-11T00:42:40.966Z,76.50
2019-04-11T00:45:11.621Z,77.30
2019-04-11T00:47:41.565Z,76.80
2019-04-11T00:50:11.324Z,76.80
2019-04-11T00:52:41.292Z,78.00
2019-04-11T00:55:11.289Z,77.10
2019-04-11T00:57:41.134Z,76.40
2019-04-11T01:00:11.167Z,77.80
2019-04-11T01:02:42.261Z,77.50
2019-04-11T01:05:13.050Z,76.50
2019-04-11T01:07:42.905Z,77.60
2019-04-11T01:10:12.690Z,76.60
2019-04-11T01:12:42.951Z,76.90
2019-04-11T01:15:15.442Z,76.60
2019-04-11T01:17:47.516Z,77.10
2019-04-11T01:20:17.473Z,77.00
2019-04-11T01:22:47.066Z,77.70
2019-04-11T01:25:16.759Z,78.00
2019-04-11T01:27:46.466Z,78.40
2019-04-11T01:30:20.674Z,78.30
2019-04-11T01:32:50.654Z,79.00
2019-04-11T01:35:21.348Z,78.30
2019-04-11T01:37:50.958Z,78.30
2019-04-11T01:40:21.352Z,78.40
2019-04-11T01:42:51.351Z,77.60
2019-04-11T01:45:22.848Z,77.90
2019-04-11T01:47:57.395Z,78.10
2019-04-11T01:50:29.252Z,78.10
2019-04-11T01:52:58.952Z,78.40
2019-04-11T01:55:28.565Z,77.90
2019-04-11T01:57:58.356Z,78.10
2019-04-11T02:00:32.341Z,77.10
2019-04-11T02:03:03.539Z,77.80
2019-04-11T02:05:34.967Z,78.50
2019-04-11T02:08:04.678Z,79.10
2019-04-11T02:10:35.001Z,78.00
2019-04-11T02:13:05.721Z,78.40
2019-04-11T02:15:36.825Z,78.30
2019-04-11T02:18:07.561Z,78.90
2019-04-11T02:20:38.778Z,78.30
2019-04-11T02:23:20.080Z,78.90
2019-04-11T02:26:05.020Z,78.80
2019-04-11T02:28:34.936Z,79.10
2019-04-11T02:31:05.567Z,79.30
2019-04-11T02:33:37.098Z,79.20
2019-04-11T02:36:07.915Z,78.90
2019-04-11T02:38:39.110Z,79.40
2019-04-11T02:41:10.565Z,79.60
2019-04-11T02:43:44.219Z,79.20
2019-04-11T02:46:23.518Z,79.50
2019-04-11T02:48:44.945Z,79.80
2019-04-11T02:51:15.452Z,80.10
2019-04-11T02:53:45.270Z,80.00
2019-04-11T02:56:17.309Z,79.40
2019-04-11T02:58:48.266Z,79.50
2019-04-11T03:01:18.015Z,79.60
2019-04-11T03:04:14.899Z,80.60
2019-04-11T03:06:45.770Z,80.10
2019-04-11T03:09:17.578Z,79.70
2019-04-11T03:11:47.370Z,79.40
2019-04-11T03:14:20.623Z,79.80
2019-04-11T03:16:59.711Z,79.40
2019-04-11T03:19:37.618Z,79.70
2019-04-11T03:21:54.565Z,79.30
2019-04-11T03:24:26.377Z,80.50
2019-04-11T03:26:58.238Z,80.20
2019-04-11T03:29:29.333Z,80.90
2019-04-11T03:32:37.120Z,80.50
2019-04-11T03:35:20.524Z,80.60
2019-04-11T03:39:57.194Z,80.80
2019-04-11T03:42:20.453Z,81.00
2019-04-11T03:44:44.092Z,80.80
2019-04-11T03:47:23.769Z,81.60
2019-04-11T03:49:51.014Z,81.80
2019-04-11T03:52:17.207Z,80.40
2019-04-11T03:54:47.709Z,81.30
2019-04-11T03:57:18.099Z,81.10
2019-04-11T03:59:48.069Z,82.00
2019-04-11T04:02:17.975Z,81.60
2019-04-11T04:04:49.379Z,81.00
2019-04-11T04:07:21.378Z,81.10
2019-04-11T04:09:51.906Z,81.50
2019-04-11T04:12:24.095Z,81.30
2019-04-11T04:14:54.036Z,80.40
2019-04-11T04:17:33.028Z,81.40
2019-04-11T04:20:15.234Z,81.60
2019-04-11T04:22:56.628Z,83.70
2019-04-11T04:25:28.444Z,83.60
2019-04-11T04:27:58.920Z,83.30
2019-04-11T04:30:29.798Z,83.30
2019-04-11T04:33:00.604Z,83.70
2019-04-11T04:35:33.668Z,82.70
2019-04-11T04:38:05.182Z,82.50
2019-04-11T04:40:51.033Z,82.60
2019-04-11T04:43:10.376Z,82.20
2019-04-11T04:46:01.676Z,81.90
2019-04-11T04:48:14.294Z,82.50
2019-04-11T04:50:42.568Z,82.50
2019-04-11T04:53:13.592Z,82.40
2019-04-11T04:55:43.669Z,82.10
2019-04-11T04:58:15.781Z,81.90
2019-04-11T05:00:45.964Z,82.20
2019-04-11T05:03:15.935Z,81.90
2019-04-11T05:05:46.554Z,81.80
2019-04-11T05:08:16.617Z,81.90
2019-04-11T05:10:47.061Z,81.80
2019-04-11T05:13:17.246Z,81.90
2019-04-11T05:15:46.990Z,81.50
2019-04-11T05:18:18.009Z,81.80
2019-04-11T05:20:48.281Z,82.10
2019-04-11T05:23:18.037Z,81.10
2019-04-11T05:25:47.632Z,81.80
2019-04-11T05:28:17.149Z,81.40
2019-04-11T05:30:46.961Z,82.60
2019-04-11T05:33:17.824Z,81.00
2019-04-11T05:35:48.029Z,80.70
2019-04-11T05:38:18.639Z,83.80
2019-04-11T05:40:48.435Z,83.90
2019-04-11T05:43:18.006Z,84.80
2019-04-11T05:45:48.527Z,82.30
2019-04-11T05:48:25.561Z,80.40
2019-04-11T05:50:54.487Z,80.10
2019-04-11T05:53:25.014Z,80.90
2019-04-11T05:55:55.330Z,80.70
2019-04-11T05:58:26.479Z,80.70
2019-04-11T06:01:01.317Z,80.90
2019-04-11T06:03:32.234Z,80.50
2019-04-11T06:06:18.835Z,79.90
2019-04-11T06:08:49.660Z,80.40
2019-04-11T06:11:30.612Z,79.30
2019-04-11T06:14:05.800Z,79.70
2019-04-11T06:16:43.590Z,79.90
2019-04-11T06:19:16.511Z,80.30
2019-04-11T06:21:53.381Z,79.00
2019-04-11T06:24:30.071Z,78.70
2019-04-11T06:27:01.471Z,78.30
2019-04-11T06:29:32.736Z,78.40
2019-04-11T06:32:21.469Z,77.20
2019-04-11T06:34:52.920Z,77.20
2019-04-11T06:37:41.347Z,76.10
2019-04-11T06:40:12.987Z,76.40
2019-04-11T06:42:44.204Z,76.00
2019-04-11T06:45:15.635Z,75.80
2019-04-11T06:47:47.866Z,75.80
2019-04-11T06:50:25.145Z,75.40
2019-04-11T06:52:54.816Z,74.80
2019-04-11T06:55:35.064Z,75.10
2019-04-11T06:58:06.800Z,74.80
2019-04-11T07:00:39.090Z,74.60
2019-04-11T07:03:18.769Z,74.50
2019-04-11T07:05:40.634Z,74.00
2019-04-11T07:08:10.684Z,74.60
2019-04-11T07:10:51.169Z,73.50
2019-04-11T07:13:22.761Z,73.60
2019-04-11T07:15:52.851Z,73.40
2019-04-11T07:18:37.824Z,73.00
2019-04-11T07:21:10.765Z,72.90
2019-04-11T07:23:59.732Z,73.10
2019-04-11T07:26:30.926Z,71.90
2019-04-11T07:29:08.638Z,72.70
2019-04-11T07:31:50.334Z,72.50
2019-04-11T07:34:39.769Z,71.60
2019-04-11T07:37:26.277Z,72.80
2019-04-11T07:40:03.306Z,71.10
2019-04-11T07:42:49.633Z,71.00
2019-04-11T07:45:37.674Z,70.40
2019-04-11T07:48:17.897Z,70.70
2019-04-11T07:50:48.676Z,70.00
2019-04-11T07:53:19.959Z,68.80
2019-04-11T07:55:51.018Z,69.00
2019-04-11T07:58:30.756Z,68.80
2019-04-11T08:01:16.964Z,68.60
2019-04-11T08:03:57.929Z,68.80
2019-04-11T08:06:34.894Z,68.70
2019-04-11T08:09:24.468Z,69.00
2019-04-11T08:11:56.213Z,66.80
2019-04-11T08:14:33.417Z,67.60
2019-04-11T08:17:04.628Z,67.10
2019-04-11T08:19:47.505Z,68.60
2019-04-11T08:22:21.540Z,67.80
2019-04-11T08:24:58.754Z,66.90
2019-04-11T08:27:29.995Z,66.10
2019-04-11T08:30:02.667Z,67.10
2019-04-11T08:32:38.085Z,67.40
2019-04-11T08:35:12.206Z,67.20
2019-04-11T08:37:44.007Z,66.60
2019-04-11T08:40:15.570Z,66.70
2019-04-11T08:42:57.012Z,65.50
2019-04-11T08:45:28.374Z,65.00
2019-04-11T08:48:00.282Z,65.00
2019-04-11T08:50:31.638Z,65.40
2019-04-11T08:53:16.291Z,63.90
2019-04-11T08:55:53.639Z,64.80
2019-04-11T08:58:20.555Z,64.50
2019-04-11T09:01:00.823Z,62.70
2019-04-11T09:03:34.527Z,64.30
2019-04-11T09:06:12.554Z,63.50
2019-04-11T09:09:00.042Z,62.80
2019-04-11T09:11:33.058Z,62.60
2019-04-11T09:14:08.146Z,63.60
2019-04-11T09:16:45.803Z,61.50
2019-04-11T09:19:27.265Z,61.40
2019-04-11T09:22:11.631Z,61.00
2019-04-11T09:24:43.163Z,60.80
2019-04-11T09:27:31.544Z,61.60
2019-04-11T09:30:02.372Z,62.30
2019-04-11T09:32:50.743Z,61.20
2019-04-11T09:35:20.182Z,60.20
2019-04-11T09:37:49.774Z,60.40
2019-04-11T09:40:37.425Z,60.50
2019-04-11T09:43:22.020Z,58.70
2019-04-11T09:46:06.140Z,59.40
2019-04-11T09:48:53.871Z,57.40
2019-04-11T09:51:28.656Z,57.00
2019-04-11T09:53:59.207Z,56.70
2019-04-11T09:56:39.725Z,58.30
2019-04-11T09:59:14.335Z,58.30
2019-04-11T10:02:03.745Z,56.20
2019-04-11T10:04:36.018Z,54.50
2019-04-11T10:07:23.770Z,56.90
2019-04-11T10:10:02.623Z,56.40
2019-04-11T10:12:38.343Z,56.20
2019-04-11T10:15:13.522Z,56.50
2019-04-11T10:17:48.479Z,55.20
2019-04-11T10:20:20.356Z,54.70
2019-04-11T10:23:08.292Z,53.00
2019-04-11T10:25:39.433Z,52.80
2019-04-11T10:28:19.609Z,55.10
2019-04-11T10:30:50.275Z,52.60
2019-04-11T10:33:24.767Z,54.90
2019-04-11T10:36:02.932Z,51.20
2019-04-11T10:38:33.421Z,54.70
2019-04-11T10:41:10.754Z,52.70
2019-04-11T10:43:40.461Z,52.60
2019-04-11T10:46:15.221Z,51.80
2019-04-11T10:48:47.456Z,54.00
2019-04-11T10:51:25.507Z,53.80
2019-04-11T10:53:57.541Z,54.30
2019-04-11T10:56:44.737Z,53.60
2019-04-11T10:59:15.476Z,51.00
2019-04-11T11:01:52.703Z,53.60
2019-04-11T11:04:29.733Z,52.50
2019-04-11T11:07:02.230Z,53.00
2019-04-11T11:09:42.286Z,51.50
2019-04-11T11:12:29.737Z,51.70
2019-04-11T11:15:01.508Z,52.60
2019-04-11T11:18:20.638Z,51.90
2019-04-11T11:20:41.554Z,52.80
2019-04-11T11:23:27.218Z,50.50
2019-04-11T11:25:59.147Z,51.40
2019-04-11T11:28:30.383Z,51.90
2019-04-11T11:31:08.459Z,50.40
2019-04-11T11:33:38.660Z,49.10
2019-04-11T11:36:19.392Z,50.20
2019-04-11T11:39:06.829Z,51.40
2019-04-11T11:41:54.552Z,50.20
2019-04-11T11:44:25.872Z,50.00
2019-04-11T11:47:15.525Z,49.60
2019-04-11T11:49:54.644Z,50.20
2019-04-11T11:52:19.233Z,52.30
2019-04-11T11:54:48.871Z,50.30
2019-04-11T11:57:20.434Z,47.30
2019-04-11T11:59:52.403Z,49.20
2019-04-11T12:02:26.437Z,49.00
2019-04-11T12:04:57.630Z,49.60
2019-04-11T12:07:33.742Z,48.70
2019-04-11T12:10:13.240Z,48.70
2019-04-11T12:12:46.457Z,48.60
2019-04-11T12:15:35.057Z,46.50
2019-04-11T12:18:15.808Z,46.10
2019-04-11T12:20:49.357Z,46.80
2019-04-11T12:23:29.576Z,47.10
2019-04-11T12:25:59.527Z,49.10
2019-04-11T12:28:46.443Z,47.10
2019-04-11T12:31:16.012Z,46.30
2019-04-11T12:34:03.339Z,46.20
2019-04-11T12:36:34.775Z,44.90
2019-04-11T12:39:08.694Z,44.70
2019-04-11T12:41:42.845Z,46.50
2019-04-11T12:44:30.457Z,45.00
2019-04-11T12:47:13.757Z,46.90
2019-04-11T12:49:52.939Z,46.90
2019-04-11T12:52:38.190Z,46.20
2019-04-11T12:55:16.116Z,46.60
2019-04-11T12:58:03.463Z,46.10
2019-04-11T13:00:32.801Z,46.40
2019-04-11T13:03:07.594Z,46.00
2019-04-11T13:05:38.821Z,45.00
2019-04-11T13:08:12.685Z,46.00
2019-04-11T13:10:43.797Z,45.70
2019-04-11T13:13:13.209Z,46.20
2019-04-11T13:15:44.436Z,46.60
2019-04-11T13:18:29.144Z,47.00
2019-04-11T13:21:06.850Z,47.10
2019-04-11T13:23:54.073Z,46.80
2019-04-11T13:26:40.732Z,47.70
2019-04-11T13:29:12.990Z,45.40
2019-04-11T13:32:00.384Z,45.40
2019-04-11T13:34:30.837Z,46.00
2019-04-11T13:37:00.229Z,46.40
2019-04-11T13:39:29.805Z,46.90
2019-04-11T13:42:17.215Z,45.40
2019-04-11T13:44:47.102Z,43.40
2019-04-11T13:47:16.455Z,44.40
2019-04-11T13:49:47.969Z,42.70
2019-04-11T13:52:22.285Z,43.40
2019-04-11T13:54:59.252Z,44.20
2019-04-11T13:57:30.832Z,42.60
2019-04-11T14:00:18.377Z,42.90
2019-04-11T14:02:52.479Z,41.80
2019-04-11T14:05:22.691Z,41.90
2019-04-11T14:07:53.107Z,42.20
2019-04-11T14:10:23.370Z,40.40
2019-04-11T14:12:57.046Z,39.80
2019-04-11T14:15:29.781Z,38.90
2019-04-11T14:18:01.063Z,34.70
2019-04-11T14:20:46.579Z,32.30
2019-04-11T14:23:21.726Z,32.50
2019-04-11T14:26:01.800Z,32.10
2019-04-11T14:28:35.963Z,29.30
2019-04-11T14:31:23.490Z,29.80
2019-04-11T14:33:55.973Z,28.70
2019-04-11T14:36:33.472Z,29.30
2019-04-11T14:39:02.725Z,29.80
2019-04-11T14:41:32.342Z,29.30
2019-04-11T14:44:03.627Z,28.30
2019-04-11T14:46:52.808Z,28.20
2019-04-11T14:49:22.364Z,27.30
2019-04-11T14:52:03.691Z,27.00
2019-04-11T14:54:34.960Z,27.00
2019-04-11T14:57:06.421Z,27.00
2019-04-11T14:59:40.382Z,27.20
2019-04-11T15:02:09.865Z,26.70
2019-04-11T15:04:43.702Z,27.80
2019-04-11T15:07:15.548Z,26.90
2019-04-11T15:09:46.798Z,27.60
2019-04-11T15:12:18.441Z,27.70
2019-04-11T15:14:56.590Z,25.80
2019-04-11T15:17:33.777Z,25.50
2019-04-11T15:20:07.817Z,25.00
2019-04-11T15:22:44.953Z,26.40
2019-04-11T15:25:26.263Z,27.20
2019-04-11T15:27:58.412Z,27.60
2019-04-11T15:30:43.377Z,27.70
2019-04-11T15:33:30.492Z,27.40
2019-04-11T15:36:01.699Z,27.50
2019-04-11T15:38:41.430Z,27.80
2019-04-11T15:41:12.714Z,27.10
2019-04-11T15:43:59.917Z,28.20
2019-04-11T15:46:31.130Z,28.30
2019-04-11T15:49:21.946Z,28.00
2019-04-11T15:51:51.381Z,27.50
2019-04-11T15:54:38.676Z,27.90
2019-04-11T15:57:13.423Z,28.00
2019-04-11T15:59:44.678Z,27.90
2019-04-11T16:02:16.808Z,26.90
2019-04-11T16:04:46.153Z,26.40
2019-04-11T16:07:29.946Z,26.50
2019-04-11T16:10:01.140Z,26.20
2019-04-11T16:12:30.492Z,28.30
2019-04-11T16:15:01.697Z,30.60
2019-04-11T16:17:36.884Z,31.50
2019-04-11T16:20:09.735Z,31.20
2019-04-11T16:22:39.068Z,31.40
2019-04-11T16:25:12.013Z,31.90
2019-04-11T16:27:49.370Z,35.10
2019-04-11T16:30:22.661Z,36.80
2019-04-11T16:33:06.658Z,38.50
2019-04-11T16:35:42.170Z,38.80
2019-04-11T16:38:29.456Z,39.30
2019-04-11T16:41:04.595Z,40.00
2019-04-11T16:43:34.155Z,40.80
2019-04-11T16:46:24.622Z,40.50
2019-04-11T16:48:55.655Z,40.70
2019-04-11T16:51:30.756Z,41.40
2019-04-11T16:53:55.147Z,41.70
2019-04-11T16:56:24.795Z,42.30
2019-04-11T16:58:54.370Z,43.40
2019-04-11T17:01:23.940Z,44.40
2019-04-11T17:03:55.119Z,43.90
2019-04-11T17:06:27.549Z,44.40
2019-04-11T17:09:07.416Z,45.10
2019-04-11T17:11:37.060Z,44.70
2019-04-11T17:14:06.693Z,46.00
2019-04-11T17:16:36.352Z,45.70
2019-04-11T17:19:06.279Z,46.80
2019-04-11T17:21:43.033Z,46.50
2019-04-11T17:24:07.170Z,46.20
2019-04-11T17:26:36.737Z,46.20
2019-04-11T17:29:06.310Z,47.00
2019-04-11T17:31:35.891Z,46.90
2019-04-11T17:34:05.792Z,47.50
2019-04-11T17:36:35.381Z,48.30
2019-04-11T17:39:07.690Z,48.70
2019-04-11T17:41:37.399Z,48.00
2019-04-11T17:44:07.049Z,47.60
2019-04-11T17:46:36.613Z,48.80
2019-04-11T17:49:06.218Z,48.40
2019-04-11T17:51:35.760Z,48.50
2019-04-11T17:54:05.405Z,49.40
2019-04-11T17:56:34.972Z,49.00
2019-04-11T17:59:04.547Z,50.40
2019-04-11T18:01:37.809Z,51.00
2019-04-11T18:04:05.651Z,49.50
2019-04-11T18:06:35.779Z,50.20
2019-04-11T18:09:10.269Z,50.30
2019-04-11T18:11:40.292Z,50.70
2019-04-11T18:14:09.857Z,51.20
2019-04-11T18:16:39.434Z,52.00
2019-04-11T18:19:09.886Z,51.40
2019-04-11T18:21:39.558Z,51.60
2019-04-11T18:24:09.659Z,51.60
2019-04-11T18:26:39.451Z,52.00
2019-04-11T18:29:09.009Z,52.00
2019-04-11T18:31:38.587Z,52.50
2019-04-11T18:34:08.154Z,52.30
2019-04-11T18:36:37.800Z,52.80
2019-04-11T18:39:08.398Z,52.00
2019-04-11T18:41:37.971Z,52.70
2019-04-11T18:44:07.910Z,53.00
2019-04-11T18:46:37.467Z,53.40
2019-04-11T18:49:07.249Z,52.90
2019-04-11T18:51:36.819Z,53.40
2019-04-11T18:54:07.790Z,53.10
2019-04-11T18:56:38.221Z,54.20
2019-04-11T18:59:07.926Z,53.30
2019-04-11T19:01:39.834Z,53.40
2019-04-11T19:04:12.016Z,52.80
2019-04-11T19:06:43.031Z,53.50
2019-04-11T19:09:14.851Z,53.50
2019-04-11T19:11:46.246Z,53.70
2019-04-11T19:14:16.617Z,53.70
2019-04-11T19:16:46.870Z,54.20
2019-04-11T19:19:18.582Z,54.10
2019-04-11T19:21:50.750Z,54.00
2019-04-11T19:24:19.014Z,54.20
2019-04-11T19:26:48.770Z,55.20
2019-04-11T19:29:19.268Z,55.20
2019-04-11T19:31:48.825Z,55.40
2019-04-11T19:34:18.399Z,55.20
2019-04-11T19:36:48.020Z,55.20
2019-04-11T19:39:18.669Z,55.30
2019-04-11T19:41:48.663Z,55.60
2019-04-11T19:44:19.317Z,56.10
2019-04-11T19:46:50.949Z,56.10
2019-04-11T19:49:20.837Z,56.70
2019-04-11T19:51:50.962Z,56.30
2019-04-11T19:54:20.701Z,57.00
2019-04-11T19:57:06.375Z,56.60
2019-04-11T19:59:35.934Z,57.20
2019-04-11T20:02:06.016Z,57.10
2019-04-11T20:04:35.577Z,57.00
2019-04-11T20:07:05.196Z,56.90
2019-04-11T20:09:34.773Z,57.60
2019-04-11T20:12:04.325Z,57.40
2019-04-11T20:14:34.860Z,58.10
2019-04-11T20:17:04.715Z,57.60
2019-04-11T20:19:34.263Z,57.80
2019-04-11T20:22:08.213Z,57.40
2019-04-11T20:24:35.102Z,57.70
2019-04-11T20:27:04.668Z,58.10
2019-04-11T20:29:34.233Z,58.20
2019-04-11T20:32:03.784Z,58.70
2019-04-11T20:34:33.389Z,58.40
2019-04-11T20:37:02.943Z,58.60
2019-04-11T20:39:32.571Z,58.40
2019-04-11T20:42:02.129Z,58.90
2019-04-11T20:44:34.351Z,58.80
2019-04-11T20:47:03.914Z,58.90
2019-04-11T20:49:35.131Z,58.20
2019-04-11T20:52:04.678Z,58.60
2019-04-11T20:54:35.960Z,59.40
2019-04-11T20:57:05.521Z,59.30
2019-04-11T20:59:35.277Z,59.30
2019-04-11T21:02:04.909Z,59.50
2019-04-11T21:04:35.939Z,59.80
2019-04-11T21:07:05.995Z,59.60
2019-04-11T21:09:35.630Z,59.70
2019-04-11T21:12:07.588Z,60.00
2019-04-11T21:14:37.094Z,60.30
2019-04-11T21:17:08.145Z,60.40
2019-04-11T21:19:37.710Z,60.40
2019-04-11T21:22:07.306Z,60.70
2019-04-11T21:24:37.146Z,61.00
2019-04-11T21:27:07.066Z,60.50
2019-04-11T21:29:36.629Z,61.30
2019-04-11T21:32:06.182Z,60.90
2019-04-11T21:34:35.746Z,61.30
2019-04-11T21:37:07.100Z,61.10
2019-04-11T21:39:36.666Z,61.80
2019-04-11T21:42:06.727Z,61.90
2019-04-11T21:44:36.877Z,60.80
2019-04-11T21:47:07.313Z,60.40
2019-04-11T21:49:37.770Z,61.00
2019-04-11T21:52:07.438Z,60.40
2019-04-11T21:54:37.216Z,60.40
2019-04-11T21:57:06.795Z,61.80
2019-04-11T21:59:36.353Z,61.80
2019-04-11T22:02:08.257Z,61.10
2019-04-11T22:04:37.819Z,61.90
2019-04-11T22:07:07.367Z,62.40
2019-04-11T22:09:37.005Z,61.30
2019-04-11T22:12:08.775Z,60.50
2019-04-11T22:14:41.337Z,60.40
2019-04-11T22:17:09.712Z,60.50
2019-04-11T22:19:39.281Z,60.90
2019-04-11T22:22:08.903Z,62.20
2019-04-11T22:24:38.459Z,62.90
2019-04-11T22:27:08.025Z,62.90
2019-04-11T22:29:37.590Z,62.80
2019-04-11T22:32:07.158Z,63.20
2019-04-11T22:34:38.346Z,62.10
2019-04-11T22:37:07.914Z,62.40
2019-04-11T22:39:37.469Z,62.40
2019-04-11T22:42:07.104Z,62.10
2019-04-11T22:44:38.088Z,63.10
2019-04-11T22:47:08.606Z,63.30
2019-04-11T22:49:39.365Z,63.50
2019-04-11T22:52:11.361Z,64.10
2019-04-11T22:54:41.781Z,64.00
2019-04-11T22:57:12.105Z,64.10
2019-04-11T22:59:44.971Z,64.40
2019-04-11T23:02:18.316Z,63.60
2019-04-11T23:04:47.970Z,63.70
2019-04-11T23:07:17.910Z,63.60
2019-04-11T23:09:49.079Z,63.70
2019-04-11T23:12:19.172Z,64.50
2019-04-11T23:14:48.724Z,63.80
2019-04-11T23:17:18.546Z,63.10
2019-04-11T23:19:48.045Z,63.80
2019-04-11T23:22:17.624Z,63.70
2019-04-11T23:24:47.231Z,64.50
2019-04-11T23:27:16.803Z,63.90
2019-04-11T23:29:47.170Z,64.80
2019-04-11T23:32:21.003Z,64.60
2019-04-11T23:34:52.649Z,64.50
2019-04-11T23:37:21.744Z,65.20
2019-04-11T23:39:51.738Z,65.60
2019-04-11T23:42:21.413Z,66.10
2019-04-11T23:44:51.273Z,66.30
2019-04-11T23:47:23.026Z,66.40
2019-04-11T23:49:55.122Z,66.70
2019-04-11T23:52:26.410Z,66.80
2019-04-11T23:54:54.763Z,67.20
2019-04-11T23:57:24.322Z,67.20
2019-04-11T23:59:53.891Z,67.40
